createdAt,value
2023-04-23T00:00:24.825Z,13.26
2023-04-23T00:02:53.518Z,13.13
2023-04-23T00:05:23.461Z,13.00
2023-04-23T00:07:52.480Z,12.95
2023-04-23T00:10:19.276Z,12.91
2023-04-23T00:12:46.075Z,12.88
2023-04-23T00:15:13.948Z,12.73
2023-04-23T00:17:40.592Z,12.68
2023-04-23T00:20:12.821Z,12.70
2023-04-23T00:22:39.453Z,12.74
2023-04-23T00:25:06.932Z,12.71
2023-04-23T00:27:33.461Z,12.71
2023-04-23T00:30:00.495Z,12.71
2023-04-23T00:32:29.878Z,12.68
2023-04-23T00:34:56.731Z,12.71
2023-04-23T00:37:26.039Z,12.68
2023-04-23T00:39:52.671Z,12.64
2023-04-23T00:42:19.321Z,12.62
2023-04-23T00:44:45.906Z,12.63
2023-04-23T00:47:17.940Z,12.66
2023-04-23T00:49:47.413Z,12.62
2023-04-23T00:52:13.940Z,12.58
2023-04-23T00:54:40.951Z,12.54
2023-04-23T00:57:08.381Z,12.50
2023-04-23T00:59:36.665Z,12.48
2023-04-23T01:02:05.922Z,12.47
2023-04-23T01:04:32.999Z,12.40
2023-04-23T01:06:59.675Z,12.37
2023-04-23T01:09:29.003Z,12.35
2023-04-23T01:11:55.815Z,12.36
2023-04-23T01:14:22.484Z,12.34
2023-04-23T01:16:49.462Z,12.34
2023-04-23T01:19:16.199Z,12.28
2023-04-23T01:21:43.163Z,12.25
2023-04-23T01:24:12.744Z,12.24
2023-04-23T01:26:39.742Z,12.22
2023-04-23T01:29:06.371Z,12.15
2023-04-23T01:31:32.998Z,12.09
2023-04-23T01:33:59.558Z,12.08
2023-04-23T01:36:27.494Z,11.99
2023-04-23T01:38:54.128Z,12.00
2023-04-23T01:41:21.176Z,12.04
2023-04-23T01:43:50.351Z,11.97
2023-04-23T01:46:17.602Z,11.94
2023-04-23T01:48:49.646Z,11.93
2023-04-23T01:51:18.751Z,11.95
2023-04-23T01:53:48.113Z,11.94
2023-04-23T01:56:17.183Z,11.87
2023-04-23T01:58:47.096Z,11.80
2023-04-23T02:01:13.857Z,11.77
2023-04-23T02:03:40.878Z,11.77
2023-04-23T02:06:08.062Z,11.78
2023-04-23T02:08:37.170Z,11.79
2023-04-23T02:11:03.789Z,11.80
2023-04-23T02:13:30.598Z,11.64
2023-04-23T02:15:57.271Z,11.54
2023-04-23T02:18:26.554Z,11.55
2023-04-23T02:20:53.879Z,11.51
2023-04-23T02:23:22.883Z,11.44
2023-04-23T02:25:49.525Z,11.36
2023-04-23T02:28:21.073Z,11.39
2023-04-23T02:30:52.237Z,11.41
2023-04-23T02:33:19.803Z,11.46
2023-04-23T02:35:46.780Z,11.40
2023-04-23T02:38:13.388Z,11.35
2023-04-23T02:40:40.137Z,11.30
2023-04-23T02:43:09.491Z,11.23
2023-04-23T02:45:38.252Z,11.21
2023-04-23T02:48:04.919Z,11.20
2023-04-23T02:50:31.551Z,11.21
2023-04-23T02:52:58.145Z,11.21
2023-04-23T02:55:29.861Z,11.22
2023-04-23T02:57:56.708Z,11.21
2023-04-23T03:00:28.404Z,11.21
2023-04-23T03:02:57.750Z,11.16
2023-04-23T03:05:24.541Z,11.13
2023-04-23T03:07:51.238Z,11.06
2023-04-23T03:10:17.967Z,11.04
2023-04-23T03:12:47.011Z,11.01
2023-04-23T03:15:14.732Z,10.99
2023-04-23T03:17:46.485Z,10.99
2023-04-23T03:20:14.653Z,10.97
2023-04-23T03:22:44.212Z,10.97
2023-04-23T03:25:20.630Z,10.95
2023-04-23T03:27:50.543Z,10.94
2023-04-23T03:30:17.455Z,10.88
2023-04-23T03:32:46.440Z,10.86
2023-04-23T03:35:15.378Z,10.84
2023-04-23T03:37:47.041Z,10.84
2023-04-23T03:40:14.970Z,10.86
2023-04-23T03:42:43.587Z,10.84
2023-04-23T03:45:13.848Z,10.78
2023-04-23T03:47:40.735Z,10.82
2023-04-23T03:50:09.114Z,10.96
2023-04-23T03:52:36.475Z,11.01
2023-04-23T03:55:03.828Z,11.00
2023-04-23T03:57:36.249Z,10.98
2023-04-23T04:00:33.902Z,10.89
2023-04-23T04:03:02.370Z,10.84
2023-04-23T04:05:31.168Z,10.81
2023-04-23T04:08:02.240Z,10.82
2023-04-23T04:10:32.568Z,10.83
2023-04-23T04:12:59.189Z,10.83
2023-04-23T04:15:27.623Z,10.82
2023-04-23T04:17:54.633Z,10.81
2023-04-23T04:20:23.730Z,10.71
2023-04-23T04:22:52.506Z,10.76
2023-04-23T04:25:19.105Z,10.82
2023-04-23T04:27:46.175Z,10.89
2023-04-23T04:30:12.959Z,10.94
2023-04-23T04:32:40.613Z,10.97
2023-04-23T04:35:09.914Z,10.95
2023-04-23T04:37:36.568Z,10.96
2023-04-23T04:40:05.305Z,11.01
2023-04-23T04:42:39.584Z,11.02
2023-04-23T04:45:10.145Z,10.96
2023-04-23T04:47:39.175Z,10.99
2023-04-23T04:50:08.171Z,11.02
2023-04-23T04:52:35.742Z,11.04
2023-04-23T04:55:04.622Z,11.03
2023-04-23T04:57:31.236Z,10.94
2023-04-23T05:00:02.580Z,11.04
2023-04-23T05:02:31.663Z,11.00
2023-04-23T05:04:58.540Z,11.04
2023-04-23T05:07:25.263Z,11.14
2023-04-23T05:09:54.186Z,11.31
2023-04-23T05:12:23.275Z,11.38
2023-04-23T05:14:51.276Z,11.35
2023-04-23T05:17:21.397Z,11.41
2023-04-23T05:19:51.231Z,11.47
2023-04-23T05:22:21.164Z,11.57
2023-04-23T05:24:48.136Z,11.64
2023-04-23T05:27:17.623Z,11.69
2023-04-23T05:29:46.449Z,11.70
2023-04-23T05:32:14.003Z,11.70
2023-04-23T05:34:42.570Z,11.81
2023-04-23T05:41:02.788Z,11.85
2023-04-23T05:43:33.042Z,11.85
2023-04-23T05:45:59.644Z,11.83
2023-04-23T05:48:26.741Z,11.83
2023-04-23T05:50:53.604Z,11.87
2023-04-23T05:53:29.219Z,11.93
2023-04-23T05:56:05.083Z,11.96
2023-04-23T05:58:38.951Z,12.12
2023-04-23T06:01:15.779Z,12.27
2023-04-23T06:03:45.732Z,12.44
2023-04-23T06:06:15.244Z,12.53
2023-04-23T06:08:59.316Z,12.64
2023-04-23T06:11:28.441Z,12.78
2023-04-23T06:13:56.954Z,12.88
2023-04-23T06:16:24.190Z,12.90
2023-04-23T06:18:50.936Z,12.91
2023-04-23T06:21:20.671Z,12.93
2023-04-23T06:23:47.270Z,13.01
2023-04-23T06:26:13.863Z,13.04
2023-04-23T06:28:42.128Z,13.21
2023-04-23T06:31:24.664Z,13.38
2023-04-23T06:33:56.380Z,13.50
2023-04-23T06:36:23.604Z,13.67
2023-04-23T06:38:52.489Z,13.80
2023-04-23T06:41:19.182Z,13.92
2023-04-23T06:43:46.415Z,13.98
2023-04-23T06:46:23.710Z,14.01
2023-04-23T06:48:50.325Z,14.11
2023-04-23T06:51:19.565Z,14.07
2023-04-23T06:53:48.456Z,14.04
2023-04-23T06:56:17.558Z,14.10
2023-04-23T06:58:49.676Z,14.28
2023-04-23T07:01:23.386Z,14.43
2023-04-23T07:03:51.806Z,14.51
2023-04-23T07:06:21.422Z,14.66
2023-04-23T07:08:48.723Z,14.81
2023-04-23T07:11:15.498Z,14.92
2023-04-23T07:13:46.972Z,15.00
2023-04-23T07:16:13.734Z,15.05
2023-04-23T07:18:42.877Z,15.21
2023-04-23T07:21:11.596Z,15.35
2023-04-23T07:23:40.521Z,15.49
2023-04-23T07:26:09.724Z,15.59
2023-04-23T07:28:38.786Z,15.62
2023-04-23T07:31:05.445Z,15.58
2023-04-23T07:33:32.039Z,15.69
2023-04-23T07:36:01.192Z,15.57
2023-04-23T07:38:27.800Z,15.52
2023-04-23T07:40:54.431Z,15.60
2023-04-23T07:43:21.695Z,15.74
2023-04-23T07:45:48.758Z,15.90
2023-04-23T07:48:19.058Z,16.09
2023-04-23T07:50:48.668Z,16.30
2023-04-23T07:53:17.703Z,16.42
2023-04-23T07:55:46.837Z,16.59
2023-04-23T07:58:18.585Z,16.73
2023-04-23T08:00:48.483Z,16.88
2023-04-23T08:03:15.244Z,17.01
2023-04-23T08:05:42.007Z,17.25
2023-04-23T08:08:12.062Z,17.31
2023-04-23T08:10:41.444Z,17.43
2023-04-23T08:13:08.269Z,17.57
2023-04-23T08:15:34.883Z,17.71
2023-04-23T08:18:04.496Z,17.84
2023-04-23T08:20:32.531Z,17.88
2023-04-23T08:22:59.328Z,18.00
2023-04-23T08:25:26.015Z,18.09
2023-04-23T08:27:57.604Z,18.19
2023-04-23T08:30:24.324Z,18.43
2023-04-23T08:32:53.777Z,18.54
2023-04-23T08:35:20.740Z,18.69
2023-04-23T08:37:49.876Z,18.81
2023-04-23T08:40:17.079Z,18.94
2023-04-23T08:42:51.010Z,19.03
2023-04-23T08:45:18.081Z,18.89
2023-04-23T08:47:47.511Z,18.88
2023-04-23T08:50:20.936Z,19.08
2023-04-23T08:52:48.382Z,19.26
2023-04-23T08:55:15.943Z,19.27
2023-04-23T08:57:45.486Z,19.37
2023-04-23T09:00:12.550Z,19.52
2023-04-23T09:02:46.576Z,19.67
2023-04-23T09:05:13.695Z,19.67
2023-04-23T09:07:43.000Z,19.89
2023-04-23T09:10:12.997Z,20.12
2023-04-23T09:12:41.462Z,20.24
2023-04-23T09:15:14.131Z,20.46
2023-04-23T09:17:47.210Z,20.56
2023-04-23T09:20:18.835Z,20.69
2023-04-23T09:22:47.990Z,20.83
2023-04-23T09:25:22.465Z,20.88
2023-04-23T09:27:52.373Z,20.75
2023-04-23T09:30:19.642Z,20.65
2023-04-23T09:32:46.791Z,20.68
2023-04-23T09:35:15.091Z,20.83
2023-04-23T09:37:51.000Z,20.87
2023-04-23T09:40:18.386Z,21.10
2023-04-23T09:42:49.950Z,20.94
2023-04-23T09:45:22.042Z,21.08
2023-04-23T09:47:52.255Z,21.26
2023-04-23T09:50:39.605Z,21.27
2023-04-23T09:53:07.235Z,21.28
2023-04-23T09:55:39.122Z,21.30
2023-04-23T09:58:07.354Z,21.44
2023-04-23T10:00:35.069Z,21.65
2023-04-23T10:03:02.036Z,21.77
2023-04-23T10:05:45.287Z,21.64
2023-04-23T10:08:20.794Z,21.76
2023-04-23T10:11:00.081Z,22.07
2023-04-23T10:13:36.410Z,22.30
2023-04-23T10:16:20.735Z,22.53
2023-04-23T10:18:49.250Z,22.61
2023-04-23T10:21:16.344Z,22.76
2023-04-23T10:23:43.161Z,22.85
2023-04-23T10:26:09.898Z,22.87
2023-04-23T10:28:36.622Z,22.53
2023-04-23T10:31:04.092Z,22.87
2023-04-23T10:33:42.690Z,23.33
2023-04-23T10:36:17.324Z,23.64
2023-04-23T10:38:56.748Z,23.38
2023-04-23T10:41:25.008Z,23.16
2023-04-23T10:43:54.136Z,23.67
2023-04-23T10:46:30.748Z,24.11
2023-04-23T10:49:08.967Z,24.52
2023-04-23T10:54:06.200Z,24.93
2023-04-23T10:56:33.282Z,25.30
2023-04-23T10:58:59.891Z,25.14
2023-04-23T11:01:32.070Z,24.79
2023-04-23T11:03:59.773Z,24.64
2023-04-23T11:06:45.435Z,24.75
2023-04-23T11:09:30.966Z,24.50
2023-04-23T11:11:58.199Z,24.63
2023-04-23T11:14:36.387Z,24.72
2023-04-23T11:17:09.088Z,24.33
2023-04-23T11:19:38.909Z,24.41
2023-04-23T11:22:08.157Z,23.98
2023-04-23T11:24:36.837Z,24.16
2023-04-23T11:27:05.537Z,24.24
2023-04-23T11:29:32.188Z,24.87
2023-04-23T11:32:02.927Z,25.38
2023-04-23T11:34:30.568Z,25.34
2023-04-23T11:36:58.707Z,25.31
2023-04-23T11:39:28.535Z,25.55
2023-04-23T11:41:55.280Z,25.99
2023-04-23T11:44:22.072Z,26.54
2023-04-23T11:46:51.596Z,26.94
2023-04-23T11:49:21.804Z,27.02
2023-04-23T11:51:48.408Z,26.28
2023-04-23T11:54:15.120Z,26.18
2023-04-23T11:56:42.164Z,25.78
2023-04-23T11:59:11.199Z,25.87
2023-04-23T12:01:42.689Z,25.88
2023-04-23T12:04:10.990Z,26.45
2023-04-23T12:06:38.143Z,26.42
2023-04-23T12:09:05.136Z,25.90
2023-04-23T12:11:31.688Z,26.35
2023-04-23T12:14:00.765Z,26.90
2023-04-23T12:16:34.243Z,26.87
2023-04-23T12:19:01.217Z,27.87
2023-04-23T12:21:30.688Z,28.25
2023-04-23T12:23:58.331Z,28.30
2023-04-23T12:26:25.695Z,28.99
2023-04-23T12:28:53.014Z,29.47
2023-04-23T12:31:24.032Z,30.08
2023-04-23T12:34:05.728Z,31.03
2023-04-23T12:36:35.677Z,31.73
2023-04-23T12:39:24.185Z,32.44
2023-04-23T12:41:55.048Z,32.50
2023-04-23T12:44:23.880Z,33.02
2023-04-23T12:46:57.826Z,33.21
2023-04-23T12:49:29.796Z,33.30
2023-04-23T12:52:05.724Z,32.84
2023-04-23T12:54:37.983Z,32.03
2023-04-23T12:57:27.014Z,31.67
2023-04-23T12:59:55.090Z,32.51
2023-04-23T13:02:24.269Z,33.95
2023-04-23T13:04:59.691Z,34.73
2023-04-23T13:07:31.180Z,35.21
2023-04-23T13:10:07.697Z,34.50
2023-04-23T13:12:37.881Z,33.48
2023-04-23T13:15:12.171Z,32.83
2023-04-23T13:17:41.410Z,32.15
2023-04-23T13:20:10.462Z,32.99
2023-04-23T13:22:37.218Z,33.27
2023-04-23T13:25:06.214Z,34.15
2023-04-23T13:27:40.740Z,35.16
2023-04-23T13:30:23.151Z,36.44
2023-04-23T13:33:04.604Z,36.18
2023-04-23T13:35:55.934Z,34.70
2023-04-23T13:38:56.155Z,34.92
2023-04-23T13:42:14.629Z,34.34
2023-04-23T13:46:06.818Z,33.94
2023-04-23T13:48:38.761Z,35.88
2023-04-23T14:00:23.672Z,37.61
2023-04-23T14:06:00.388Z,36.66
2023-04-23T14:08:43.253Z,36.92
2023-04-23T14:11:47.569Z,38.21
2023-04-23T14:14:51.092Z,39.31
2023-04-23T14:17:52.457Z,35.47
2023-04-23T14:20:56.849Z,34.95
2023-04-23T14:23:53.416Z,36.33
2023-04-23T14:29:41.189Z,34.16
2023-04-23T14:32:13.433Z,34.91
2023-04-23T14:34:40.002Z,35.10
2023-04-23T14:37:06.846Z,35.92
2023-04-23T14:39:33.881Z,36.69
2023-04-23T14:42:03.718Z,34.79
2023-04-23T14:44:32.648Z,35.47
2023-04-23T14:46:59.411Z,37.01
2023-04-23T14:49:28.376Z,36.67
2023-04-23T14:51:55.065Z,36.94
2023-04-23T14:54:38.206Z,35.69
2023-04-23T14:57:07.297Z,33.23
2023-04-23T14:59:33.943Z,34.21
2023-04-23T15:02:01.459Z,34.25
2023-04-23T15:04:28.298Z,34.31
2023-04-23T15:06:55.065Z,35.40
2023-04-23T15:09:29.410Z,35.65
2023-04-23T15:11:58.414Z,34.31
2023-04-23T15:14:28.657Z,34.42
2023-04-23T15:16:55.352Z,35.94
2023-04-23T15:19:26.820Z,34.69
2023-04-23T15:21:56.342Z,34.83
2023-04-23T15:24:22.939Z,34.36
2023-04-23T15:26:49.701Z,34.23
2023-04-23T15:29:16.546Z,33.63
2023-04-23T15:31:47.965Z,32.50
2023-04-23T15:34:14.656Z,32.24
2023-04-23T15:36:41.257Z,32.01
2023-04-23T15:39:08.248Z,31.45
2023-04-23T15:41:40.793Z,30.61
2023-04-23T15:44:12.251Z,30.34
2023-04-23T15:46:39.097Z,30.03
2023-04-23T15:49:06.040Z,29.59
2023-04-23T15:51:33.061Z,28.89
2023-04-23T15:54:02.734Z,28.75
2023-04-23T15:56:29.338Z,28.57
2023-04-23T15:58:55.942Z,27.92
2023-04-23T16:01:24.208Z,27.18
2023-04-23T16:04:08.520Z,26.84
2023-04-23T16:06:36.671Z,26.29
2023-04-23T16:09:06.919Z,26.03
2023-04-23T16:11:39.062Z,25.93
2023-04-23T16:14:05.796Z,25.72
2023-04-23T16:16:32.631Z,25.72
2023-04-23T16:19:04.712Z,25.63
2023-04-23T16:21:33.510Z,25.65
2023-04-23T16:24:00.517Z,25.39
2023-04-23T16:26:29.497Z,25.35
2023-04-23T16:29:16.848Z,25.75
2023-04-23T16:31:43.166Z,26.28
2023-04-23T16:34:10.314Z,26.18
2023-04-23T16:36:36.989Z,26.07
2023-04-23T16:39:04.422Z,25.88
2023-04-23T16:41:31.696Z,25.27
2023-04-23T16:43:58.321Z,24.90
2023-04-23T16:46:26.720Z,24.83
2023-04-23T16:48:53.747Z,24.82
2023-04-23T16:51:20.422Z,24.72
2023-04-23T16:53:47.025Z,24.57
2023-04-23T16:56:13.722Z,24.44
2023-04-23T16:58:40.506Z,24.31
2023-04-23T17:01:07.042Z,24.16
2023-04-23T17:03:34.006Z,23.84
2023-04-23T17:06:09.230Z,23.68
2023-04-23T17:08:37.451Z,23.57
2023-04-23T17:11:05.304Z,23.43
2023-04-23T17:13:32.685Z,23.35
2023-04-23T17:16:01.916Z,23.18
2023-04-23T17:18:28.664Z,23.04
2023-04-23T17:20:55.565Z,22.87
2023-04-23T17:23:24.668Z,22.72
2023-04-23T17:25:51.426Z,22.67
2023-04-23T17:28:21.116Z,22.54
2023-04-23T17:30:50.708Z,22.47
2023-04-23T17:33:17.977Z,22.39
2023-04-23T17:35:46.922Z,22.20
2023-04-23T17:38:20.711Z,22.07
2023-04-23T17:40:47.881Z,21.99
2023-04-23T17:43:17.132Z,21.89
2023-04-23T17:45:47.628Z,21.78
2023-04-23T17:48:14.795Z,21.69
2023-04-23T17:50:41.822Z,21.58
2023-04-23T17:53:08.424Z,21.47
2023-04-23T17:55:37.354Z,21.37
2023-04-23T17:58:07.683Z,21.28
2023-04-23T18:00:42.204Z,21.19
2023-04-23T18:03:09.521Z,21.13
2023-04-23T18:05:38.700Z,21.02
2023-04-23T18:08:06.946Z,20.94
2023-04-23T18:10:36.036Z,20.83
2023-04-23T18:13:09.098Z,20.78
2023-04-23T18:15:35.766Z,20.71
2023-04-23T18:18:02.496Z,20.60
2023-04-23T18:20:30.305Z,20.54
2023-04-23T18:22:56.837Z,20.51
2023-04-23T18:25:25.274Z,20.47
2023-04-23T18:27:51.985Z,20.38
2023-04-23T18:30:23.190Z,20.35
2023-04-23T18:32:52.380Z,20.31
2023-04-23T18:35:19.432Z,20.24
2023-04-23T18:37:52.759Z,20.22
2023-04-23T18:40:21.875Z,20.17
2023-04-23T18:42:53.216Z,20.11
2023-04-23T18:45:19.846Z,20.07
2023-04-23T18:48:12.997Z,20.09
2023-04-23T18:50:43.656Z,20.01
2023-04-23T18:53:10.349Z,19.93
2023-04-23T18:55:37.176Z,19.81
2023-04-23T18:58:04.600Z,19.71
2023-04-23T19:00:31.527Z,19.68
2023-04-23T19:03:06.506Z,19.67
2023-04-23T19:05:38.573Z,19.59
2023-04-23T19:08:07.666Z,19.54
2023-04-23T19:10:39.138Z,19.50
2023-04-23T19:13:06.157Z,19.46
2023-04-23T19:15:32.692Z,19.42
2023-04-23T19:17:59.365Z,19.35
2023-04-23T19:20:26.076Z,19.28
2023-04-23T19:22:52.674Z,19.23
2023-04-23T19:25:19.267Z,19.19
2023-04-23T19:27:48.226Z,19.13
2023-04-23T19:30:15.038Z,19.03
2023-04-23T19:32:41.726Z,18.94
2023-04-23T19:35:08.479Z,18.96
2023-04-23T19:37:36.132Z,18.96
2023-04-23T19:40:02.842Z,18.89
2023-04-23T19:42:31.406Z,18.85
2023-04-23T19:45:00.394Z,18.78
2023-04-23T19:47:29.830Z,18.63
2023-04-23T19:49:56.661Z,18.56
2023-04-23T19:52:24.035Z,18.52
2023-04-23T19:54:50.681Z,18.48
2023-04-23T19:57:19.873Z,18.46
2023-04-23T19:59:46.586Z,18.40
2023-04-23T20:02:13.391Z,18.38
2023-04-23T20:04:42.419Z,18.39
2023-04-23T20:07:09.099Z,18.37
2023-04-23T20:09:36.404Z,18.32
2023-04-23T20:12:03.014Z,18.26
2023-04-23T20:14:29.925Z,18.23
2023-04-23T20:16:56.920Z,18.14
2023-04-23T20:19:25.946Z,18.18
2023-04-23T20:21:55.146Z,18.20
2023-04-23T20:24:24.075Z,18.21
2023-04-23T20:26:50.969Z,18.13
2023-04-23T20:29:17.628Z,18.11
2023-04-23T20:31:48.831Z,18.14
2023-04-23T20:34:16.476Z,18.15
2023-04-23T20:36:47.262Z,18.16
2023-04-23T20:39:14.055Z,18.15
2023-04-23T20:41:43.187Z,18.10
2023-04-23T20:44:12.191Z,17.99
2023-04-23T20:46:38.829Z,17.98
2023-04-23T20:49:05.605Z,18.00
2023-04-23T20:51:35.113Z,17.85
2023-04-23T20:54:02.158Z,17.83
2023-04-23T20:56:29.121Z,17.80
2023-04-23T20:58:57.656Z,17.80
2023-04-23T21:01:24.976Z,17.78
2023-04-23T21:03:54.467Z,17.84
2023-04-23T21:06:23.932Z,17.83
2023-04-23T21:08:50.518Z,17.74
2023-04-23T21:11:20.473Z,17.70
2023-04-23T21:13:47.512Z,17.63
2023-04-23T21:16:14.396Z,17.55
2023-04-23T21:18:41.091Z,17.48
2023-04-23T21:21:08.279Z,17.42
2023-04-23T21:23:35.176Z,17.40
2023-04-23T21:26:01.730Z,17.38
2023-04-23T21:28:33.823Z,17.29
2023-04-23T21:31:06.091Z,17.24
2023-04-23T21:33:35.652Z,17.18
2023-04-23T21:36:07.237Z,17.14
2023-04-23T21:38:33.805Z,17.05
2023-04-23T21:41:01.289Z,17.03
2023-04-23T21:43:28.735Z,17.09
2023-04-23T21:45:55.360Z,17.13
2023-04-23T21:48:23.166Z,17.15
2023-04-23T21:50:55.258Z,17.12
2023-04-23T21:53:22.566Z,16.92
2023-04-23T21:55:49.134Z,16.91
2023-04-23T21:58:18.354Z,16.93
2023-04-23T22:00:45.514Z,17.00
2023-04-23T22:03:12.756Z,17.01
2023-04-23T22:05:48.274Z,17.05
2023-04-23T22:08:16.544Z,17.08
2023-04-23T22:10:43.416Z,17.08
2023-04-23T22:13:11.194Z,17.10
2023-04-23T22:15:38.455Z,16.98
2023-04-23T22:18:07.642Z,16.92
2023-04-23T22:20:37.983Z,16.90
2023-04-23T22:23:04.692Z,16.84
2023-04-23T22:25:33.673Z,16.79
2023-04-23T22:28:00.279Z,16.68
2023-04-23T22:30:26.903Z,16.67
2023-04-23T22:32:54.021Z,16.59
2023-04-23T22:35:20.682Z,16.60
2023-04-23T22:37:47.648Z,16.58
2023-04-23T22:40:14.276Z,16.54
2023-04-23T22:42:40.920Z,16.50
2023-04-23T22:45:08.498Z,16.51
2023-04-23T22:47:35.485Z,16.43
2023-04-23T22:50:06.615Z,16.43
2023-04-23T22:52:33.295Z,16.36
2023-04-23T22:55:00.496Z,16.32
2023-04-23T22:57:30.611Z,16.26
2023-04-23T22:59:59.599Z,16.15
2023-04-23T23:02:26.924Z,16.09
2023-04-23T23:04:56.073Z,16.02
2023-04-23T23:07:22.778Z,16.02
2023-04-23T23:09:52.354Z,15.98
2023-04-23T23:12:19.049Z,15.94
2023-04-23T23:14:45.829Z,15.91
2023-04-23T23:17:14.789Z,15.92
2023-04-23T23:19:42.664Z,15.86
2023-04-23T23:22:09.573Z,15.87
2023-04-23T23:24:39.286Z,15.88
2023-04-23T23:27:08.063Z,15.92
2023-04-23T23:29:34.712Z,15.84
2023-04-23T23:32:01.346Z,15.86
2023-04-23T23:34:27.915Z,15.87
2023-04-23T23:36:54.568Z,15.90
2023-04-23T23:39:21.544Z,15.96
2023-04-23T23:41:50.843Z,15.98
2023-04-23T23:44:22.906Z,16.00
2023-04-23T23:46:49.621Z,16.00
2023-04-23T23:49:16.366Z,15.99
2023-04-23T23:51:44.103Z,15.97
2023-04-23T23:54:10.861Z,16.03
2023-04-23T23:56:37.576Z,16.02
2023-04-23T23:59:04.223Z,16.00
